createdAt,value
2023-01-31T00:00:42.980Z,15.96
2023-01-31T00:01:42.941Z,15.96
2023-01-31T00:02:43.029Z,15.94
2023-01-31T00:03:42.948Z,15.93
2023-01-31T00:04:42.916Z,15.92
2023-01-31T00:05:42.900Z,15.97
2023-01-31T00:06:42.920Z,15.97
2023-01-31T00:07:42.909Z,15.93
2023-01-31T00:08:42.919Z,15.94
2023-01-31T00:09:42.892Z,15.92
2023-01-31T00:10:42.880Z,15.92
2023-01-31T00:11:42.893Z,15.93
2023-01-31T00:12:42.876Z,15.94
2023-01-31T00:13:42.855Z,15.92
2023-01-31T00:14:42.855Z,15.92
2023-01-31T00:15:42.897Z,15.84
2023-01-31T00:16:42.884Z,15.90
2023-01-31T00:17:42.851Z,15.90
2023-01-31T00:18:42.844Z,15.96
2023-01-31T00:19:42.842Z,15.92
2023-01-31T00:20:42.839Z,15.92
2023-01-31T00:21:42.828Z,15.96
2023-01-31T00:22:42.830Z,15.93
2023-01-31T00:23:42.804Z,15.92
2023-01-31T00:24:42.816Z,15.97
2023-01-31T00:25:42.807Z,15.92
2023-01-31T00:26:42.874Z,15.84
2023-01-31T00:27:42.800Z,15.92
2023-01-31T00:28:42.798Z,15.93
2023-01-31T00:29:42.769Z,15.90
2023-01-31T00:30:42.788Z,15.94
2023-01-31T00:31:42.947Z,15.86
2023-01-31T00:32:42.795Z,15.97
2023-01-31T00:33:42.748Z,15.92
2023-01-31T00:34:42.757Z,15.86
2023-01-31T00:35:42.734Z,15.94
2023-01-31T00:36:42.758Z,15.92
2023-01-31T00:37:42.728Z,15.93
2023-01-31T00:38:42.719Z,15.93
2023-01-31T00:39:42.734Z,15.84
2023-01-31T00:40:42.720Z,15.84
2023-01-31T00:41:42.715Z,15.89
2023-01-31T00:42:42.706Z,15.87
2023-01-31T00:43:42.693Z,15.87
2023-01-31T00:44:42.696Z,15.92
2023-01-31T00:45:42.693Z,15.90
2023-01-31T00:46:42.740Z,15.87
2023-01-31T00:47:42.683Z,15.93
2023-01-31T00:48:42.694Z,15.84
2023-01-31T00:49:42.673Z,15.94
2023-01-31T00:50:42.675Z,15.92
2023-01-31T00:51:42.660Z,15.86
2023-01-31T00:52:42.678Z,15.87
2023-01-31T00:53:42.644Z,15.86
2023-01-31T00:54:42.645Z,15.84
2023-01-31T00:55:42.629Z,15.83
2023-01-31T00:56:42.642Z,15.90
2023-01-31T00:57:42.614Z,15.89
2023-01-31T00:58:42.641Z,15.89
2023-01-31T00:59:42.597Z,15.92
2023-01-31T01:00:42.632Z,15.96
2023-01-31T01:01:42.628Z,15.87
2023-01-31T01:02:42.592Z,15.90
2023-01-31T01:03:42.579Z,15.86
2023-01-31T01:04:42.614Z,15.86
2023-01-31T01:05:42.584Z,15.94
2023-01-31T01:06:42.566Z,15.84
2023-01-31T01:07:42.571Z,15.90
2023-01-31T01:08:42.562Z,15.87
2023-01-31T01:09:42.558Z,15.87
2023-01-31T01:10:42.557Z,15.83
2023-01-31T01:11:42.534Z,15.84
2023-01-31T01:12:42.538Z,15.92
2023-01-31T01:13:42.537Z,15.86
2023-01-31T01:14:42.521Z,15.83
2023-01-31T01:15:42.512Z,15.84
2023-01-31T01:16:42.623Z,15.86
2023-01-31T01:17:42.515Z,15.86
2023-01-31T01:18:42.497Z,15.89
2023-01-31T01:19:42.495Z,15.89
2023-01-31T01:20:42.515Z,15.92
2023-01-31T01:21:42.483Z,15.87
2023-01-31T01:22:42.487Z,15.87
2023-01-31T01:23:42.468Z,15.93
2023-01-31T01:24:42.458Z,15.93
2023-01-31T01:25:42.481Z,15.84
2023-01-31T01:26:42.534Z,15.87
2023-01-31T01:27:42.461Z,15.86
2023-01-31T01:28:42.440Z,15.84
2023-01-31T01:29:42.444Z,15.82
2023-01-31T01:30:42.426Z,15.86
2023-01-31T01:31:42.551Z,15.83
2023-01-31T01:32:42.416Z,15.83
2023-01-31T01:33:42.426Z,15.87
2023-01-31T01:34:42.426Z,15.90
2023-01-31T01:35:42.411Z,15.84
2023-01-31T01:36:42.416Z,15.83
2023-01-31T01:37:42.391Z,15.89
2023-01-31T01:38:42.381Z,15.87
2023-01-31T01:39:42.393Z,15.83
2023-01-31T01:40:42.388Z,15.92
2023-01-31T01:41:42.381Z,15.83
2023-01-31T01:42:42.375Z,15.89
2023-01-31T01:43:42.374Z,15.89
2023-01-31T01:44:42.341Z,15.89
2023-01-31T01:45:42.373Z,15.84
2023-01-31T01:46:42.344Z,15.90
2023-01-31T01:47:42.337Z,15.83
2023-01-31T01:48:42.329Z,15.83
2023-01-31T01:49:42.317Z,15.92
2023-01-31T01:50:42.314Z,15.86
2023-01-31T01:51:42.325Z,15.84
2023-01-31T01:52:42.346Z,15.92
2023-01-31T01:53:42.313Z,15.84
2023-01-31T01:54:42.290Z,15.83
2023-01-31T01:55:42.307Z,15.90
2023-01-31T01:56:42.290Z,15.86
2023-01-31T01:57:42.275Z,15.82
2023-01-31T01:58:42.281Z,15.86
2023-01-31T01:59:42.280Z,15.90
2023-01-31T02:00:42.284Z,15.84
2023-01-31T02:01:42.254Z,15.89
2023-01-31T02:02:42.267Z,15.83
2023-01-31T02:03:42.264Z,15.82
2023-01-31T02:04:42.248Z,15.87
2023-01-31T02:05:42.260Z,15.86
2023-01-31T02:06:42.229Z,15.89
2023-01-31T02:07:42.785Z,15.84
2023-01-31T02:08:42.251Z,15.87
2023-01-31T02:09:42.214Z,15.86
2023-01-31T02:10:42.217Z,15.86
2023-01-31T02:11:42.220Z,15.87
2023-01-31T02:12:42.187Z,15.87
2023-01-31T02:13:42.192Z,15.87
2023-01-31T02:14:42.209Z,15.92
2023-01-31T02:15:42.181Z,15.89
2023-01-31T02:16:42.285Z,15.86
2023-01-31T02:17:42.160Z,15.84
2023-01-31T02:18:42.169Z,15.87
2023-01-31T02:19:42.154Z,15.90
2023-01-31T02:20:42.164Z,15.69
2023-01-31T02:21:42.136Z,15.80
2023-01-31T02:22:42.146Z,15.83
2023-01-31T02:23:42.133Z,15.89
2023-01-31T02:24:42.142Z,15.82
2023-01-31T02:25:42.132Z,15.87
2023-01-31T02:26:42.138Z,15.83
2023-01-31T02:27:42.110Z,15.71
2023-01-31T02:28:42.108Z,15.84
2023-01-31T02:29:42.106Z,15.78
2023-01-31T02:30:42.102Z,15.86
2023-01-31T02:31:42.124Z,15.92
2023-01-31T02:32:42.101Z,15.87
2023-01-31T02:33:42.072Z,15.86
2023-01-31T02:34:42.061Z,15.84
2023-01-31T02:35:42.064Z,15.83
2023-01-31T02:36:42.056Z,15.80
2023-01-31T02:37:42.061Z,15.78
2023-01-31T02:38:42.040Z,15.80
2023-01-31T02:39:42.056Z,15.83
2023-01-31T02:40:42.062Z,15.83
2023-01-31T02:41:42.027Z,15.87
2023-01-31T02:42:42.023Z,15.78
2023-01-31T02:43:42.036Z,15.76
2023-01-31T02:44:42.025Z,15.74
2023-01-31T02:45:42.060Z,15.84
2023-01-31T02:46:42.000Z,15.78
2023-01-31T02:47:42.004Z,15.68
2023-01-31T02:48:41.996Z,15.68
2023-01-31T02:49:41.996Z,15.76
2023-01-31T02:50:41.991Z,15.80
2023-01-31T02:51:41.972Z,15.86
2023-01-31T02:52:41.993Z,15.76
2023-01-31T02:53:41.960Z,15.82
2023-01-31T02:54:41.962Z,15.74
2023-01-31T02:55:41.967Z,15.80
2023-01-31T02:56:41.979Z,15.84
2023-01-31T02:57:41.950Z,15.76
2023-01-31T02:58:41.945Z,15.75
2023-01-31T02:59:41.934Z,15.76
2023-01-31T03:00:41.970Z,15.75
2023-01-31T03:01:42.025Z,15.76
2023-01-31T03:02:42.045Z,15.75
2023-01-31T03:03:41.943Z,15.74
2023-01-31T03:04:41.901Z,15.78
2023-01-31T03:05:41.894Z,15.74
2023-01-31T03:06:41.894Z,15.76
2023-01-31T03:07:41.898Z,15.78
2023-01-31T03:08:41.896Z,15.71
2023-01-31T03:09:41.890Z,15.68
2023-01-31T03:10:41.882Z,15.76
2023-01-31T03:11:41.875Z,15.69
2023-01-31T03:12:41.893Z,15.78
2023-01-31T03:13:41.850Z,15.71
2023-01-31T03:14:41.841Z,15.80
2023-01-31T03:15:41.841Z,15.75
2023-01-31T03:16:41.880Z,15.71
2023-01-31T03:17:41.840Z,15.72
2023-01-31T03:18:41.831Z,15.72
2023-01-31T03:19:41.819Z,15.75
2023-01-31T03:20:41.808Z,15.78
2023-01-31T03:21:41.819Z,15.76
2023-01-31T03:22:41.805Z,15.74
2023-01-31T03:23:41.813Z,15.71
2023-01-31T03:24:41.796Z,15.75
2023-01-31T03:25:41.789Z,15.78
2023-01-31T03:26:41.855Z,15.71
2023-01-31T03:27:41.772Z,15.75
2023-01-31T03:28:41.795Z,15.76
2023-01-31T03:29:41.763Z,15.74
2023-01-31T03:30:41.825Z,15.74
2023-01-31T03:31:41.868Z,15.71
2023-01-31T03:32:41.743Z,15.68
2023-01-31T03:33:41.747Z,15.80
2023-01-31T03:34:41.732Z,15.71
2023-01-31T03:35:41.733Z,15.76
2023-01-31T03:36:41.731Z,15.80
2023-01-31T03:37:41.726Z,15.80
2023-01-31T03:38:41.703Z,15.78
2023-01-31T03:39:41.703Z,15.76
2023-01-31T03:40:41.729Z,15.74
2023-01-31T03:41:41.712Z,15.75
2023-01-31T03:42:41.684Z,15.72
2023-01-31T03:43:41.701Z,15.72
2023-01-31T03:44:41.693Z,15.71
2023-01-31T03:45:41.697Z,15.69
2023-01-31T03:46:41.668Z,15.76
2023-01-31T03:47:41.683Z,15.74
2023-01-31T03:48:41.666Z,15.72
2023-01-31T03:49:41.659Z,15.69
2023-01-31T03:50:41.648Z,15.80
2023-01-31T03:51:41.657Z,15.69
2023-01-31T03:52:41.637Z,15.72
2023-01-31T03:53:41.625Z,15.75
2023-01-31T03:54:41.630Z,15.72
2023-01-31T03:55:41.624Z,15.72
2023-01-31T03:56:41.625Z,15.72
2023-01-31T03:57:41.618Z,15.65
2023-01-31T03:58:41.608Z,15.69
2023-01-31T03:59:41.603Z,15.76
2023-01-31T04:00:41.604Z,15.67
2023-01-31T04:01:41.600Z,15.71
2023-01-31T04:02:41.640Z,15.65
2023-01-31T04:03:41.566Z,15.78
2023-01-31T04:04:41.580Z,15.64
2023-01-31T04:05:41.569Z,15.69
2023-01-31T04:06:41.559Z,15.65
2023-01-31T04:07:41.581Z,15.65
2023-01-31T04:08:41.547Z,15.72
2023-01-31T04:09:41.532Z,15.67
2023-01-31T04:10:41.545Z,15.72
2023-01-31T04:11:41.527Z,15.75
2023-01-31T04:12:41.522Z,15.68
2023-01-31T04:13:41.510Z,15.59
2023-01-31T04:14:41.510Z,15.65
2023-01-31T04:15:41.539Z,15.72
2023-01-31T04:16:41.526Z,15.68
2023-01-31T04:17:41.486Z,15.69
2023-01-31T04:18:41.484Z,15.71
2023-01-31T04:19:41.477Z,15.62
2023-01-31T04:20:41.466Z,15.59
2023-01-31T04:21:41.476Z,15.68
2023-01-31T04:22:41.474Z,15.69
2023-01-31T04:23:41.470Z,15.69
2023-01-31T04:24:41.456Z,15.67
2023-01-31T04:25:41.437Z,15.57
2023-01-31T04:26:41.473Z,15.59
2023-01-31T04:27:41.454Z,15.65
2023-01-31T04:28:41.429Z,15.59
2023-01-31T04:29:41.425Z,15.62
2023-01-31T04:30:41.418Z,15.69
2023-01-31T04:31:41.582Z,15.69
2023-01-31T04:32:41.434Z,15.67
2023-01-31T04:33:41.410Z,15.57
2023-01-31T04:34:41.399Z,15.68
2023-01-31T04:35:41.414Z,15.54
2023-01-31T04:36:41.389Z,15.68
2023-01-31T04:37:41.372Z,15.56
2023-01-31T04:38:41.370Z,15.64
2023-01-31T04:39:41.360Z,15.59
2023-01-31T04:40:41.367Z,15.65
2023-01-31T04:41:41.378Z,15.57
2023-01-31T04:42:41.359Z,15.59
2023-01-31T04:43:41.361Z,15.62
2023-01-31T04:44:41.350Z,15.67
2023-01-31T04:45:41.337Z,15.60
2023-01-31T04:46:41.430Z,15.62
2023-01-31T04:47:41.339Z,15.65
2023-01-31T04:48:41.370Z,15.68
2023-01-31T04:49:41.324Z,15.59
2023-01-31T04:50:41.303Z,15.67
2023-01-31T04:51:41.302Z,15.57
2023-01-31T04:52:41.283Z,15.62
2023-01-31T04:53:41.279Z,15.67
2023-01-31T04:54:41.275Z,15.64
2023-01-31T04:55:41.273Z,15.59
2023-01-31T04:56:41.264Z,15.68
2023-01-31T04:57:41.279Z,15.59
2023-01-31T04:58:41.248Z,15.67
2023-01-31T04:59:41.359Z,15.62
2023-01-31T05:00:41.308Z,15.65
2023-01-31T05:01:41.248Z,15.57
2023-01-31T05:02:41.260Z,15.59
2023-01-31T05:03:41.228Z,15.59
2023-01-31T05:04:41.251Z,15.56
2023-01-31T05:05:41.212Z,15.65
2023-01-31T05:06:41.214Z,15.62
2023-01-31T05:07:41.213Z,15.62
2023-01-31T05:08:41.195Z,15.64
2023-01-31T05:09:41.190Z,15.64
2023-01-31T05:10:41.194Z,15.62
2023-01-31T05:11:41.231Z,15.67
2023-01-31T05:12:41.178Z,15.65
2023-01-31T05:13:41.185Z,15.57
2023-01-31T05:14:41.168Z,15.60
2023-01-31T05:15:41.164Z,15.64
2023-01-31T05:16:41.333Z,15.64
2023-01-31T05:17:41.165Z,15.68
2023-01-31T05:18:41.136Z,15.62
2023-01-31T05:19:41.134Z,15.62
2023-01-31T05:20:41.159Z,15.64
2023-01-31T05:21:41.136Z,15.62
2023-01-31T05:22:41.122Z,15.60
2023-01-31T05:23:41.123Z,15.65
2023-01-31T05:24:41.121Z,15.62
2023-01-31T05:25:41.114Z,15.60
2023-01-31T05:26:41.177Z,15.62
2023-01-31T05:27:41.098Z,15.65
2023-01-31T05:28:41.091Z,15.54
2023-01-31T05:29:41.088Z,15.65
2023-01-31T05:30:41.077Z,15.64
2023-01-31T05:31:41.093Z,15.62
2023-01-31T05:32:41.062Z,15.57
2023-01-31T05:33:41.066Z,15.64
2023-01-31T05:34:41.066Z,15.65
2023-01-31T05:35:41.040Z,15.68
2023-01-31T05:36:41.078Z,15.64
2023-01-31T05:37:41.034Z,15.67
2023-01-31T05:38:41.034Z,15.65
2023-01-31T05:39:41.019Z,15.69
2023-01-31T05:40:41.016Z,15.68
2023-01-31T05:41:41.025Z,15.64
2023-01-31T05:42:41.054Z,15.69
2023-01-31T05:43:41.024Z,15.76
2023-01-31T05:44:40.994Z,15.74
2023-01-31T05:45:41.102Z,15.68
2023-01-31T05:46:40.995Z,15.83
2023-01-31T05:47:40.984Z,15.87
2023-01-31T05:48:40.970Z,15.89
2023-01-31T05:49:40.973Z,15.94
2023-01-31T05:50:40.980Z,15.90
2023-01-31T05:51:40.955Z,15.96
2023-01-31T05:52:40.967Z,15.93
2023-01-31T05:53:40.951Z,16.05
2023-01-31T05:54:40.952Z,16.05
2023-01-31T05:55:40.939Z,16.04
2023-01-31T05:56:40.927Z,16.11
2023-01-31T05:57:40.936Z,16.09
2023-01-31T05:58:40.920Z,16.08
2023-01-31T05:59:40.944Z,16.23
2023-01-31T06:00:40.919Z,16.14
2023-01-31T06:01:40.910Z,16.24
2023-01-31T06:02:40.912Z,16.20
2023-01-31T06:03:40.888Z,16.34
2023-01-31T06:04:40.922Z,16.34
2023-01-31T06:05:40.891Z,16.33
2023-01-31T06:06:40.889Z,16.43
2023-01-31T06:07:40.877Z,16.39
2023-01-31T06:08:40.887Z,16.48
2023-01-31T06:09:40.868Z,16.49
2023-01-31T06:10:40.871Z,16.42
2023-01-31T06:11:40.868Z,16.53
2023-01-31T06:12:40.874Z,16.58
2023-01-31T06:13:40.838Z,16.60
2023-01-31T06:14:40.843Z,16.57
2023-01-31T06:15:40.843Z,16.70
2023-01-31T06:16:40.907Z,16.73
2023-01-31T06:17:40.823Z,16.71
2023-01-31T06:18:40.826Z,16.76
2023-01-31T06:19:40.824Z,16.76
2023-01-31T06:20:40.833Z,16.86
2023-01-31T06:21:40.802Z,16.85
2023-01-31T06:22:40.797Z,16.94
2023-01-31T06:23:40.799Z,17.01
2023-01-31T06:24:40.813Z,17.04
2023-01-31T06:25:40.789Z,17.06
2023-01-31T06:26:40.826Z,17.06
2023-01-31T06:27:40.768Z,17.06
2023-01-31T06:28:40.806Z,17.18
2023-01-31T06:29:40.780Z,17.15
2023-01-31T06:30:40.855Z,17.18
2023-01-31T06:31:40.880Z,17.15
2023-01-31T06:32:40.762Z,17.16
2023-01-31T06:33:47.261Z,17.22
2023-01-31T06:34:40.762Z,17.19
2023-01-31T06:35:40.737Z,17.22
2023-01-31T06:36:40.789Z,17.26
2023-01-31T06:37:40.724Z,17.30
2023-01-31T06:38:40.744Z,17.31
2023-01-31T06:39:40.713Z,17.34
2023-01-31T06:40:40.753Z,17.33
2023-01-31T06:41:40.719Z,17.36
2023-01-31T06:42:40.719Z,17.26
2023-01-31T06:43:40.716Z,17.37
2023-01-31T06:44:40.702Z,17.31
2023-01-31T06:45:40.770Z,17.33
2023-01-31T06:46:40.694Z,17.31
2023-01-31T06:47:40.705Z,17.37
2023-01-31T06:48:40.707Z,17.33
2023-01-31T06:49:40.671Z,17.25
2023-01-31T06:50:40.689Z,17.33
2023-01-31T06:51:40.669Z,17.34
2023-01-31T06:52:40.695Z,17.30
2023-01-31T06:53:40.675Z,17.30
2023-01-31T06:54:40.668Z,17.31
2023-01-31T06:55:40.655Z,17.28
2023-01-31T06:56:40.671Z,17.23
2023-01-31T06:57:40.649Z,17.25
2023-01-31T06:58:40.641Z,17.23
2023-01-31T06:59:40.645Z,17.33
2023-01-31T07:00:40.652Z,17.26
2023-01-31T07:01:40.700Z,17.22
2023-01-31T07:02:40.635Z,17.16
2023-01-31T07:03:40.612Z,17.23
2023-01-31T07:04:40.688Z,17.18
2023-01-31T07:05:40.628Z,17.18
2023-01-31T07:06:40.616Z,17.16
2023-01-31T07:07:40.602Z,17.14
2023-01-31T07:08:40.612Z,17.14
2023-01-31T07:09:40.604Z,17.16
2023-01-31T07:10:40.591Z,17.07
2023-01-31T07:11:40.598Z,17.23
2023-01-31T07:12:40.630Z,17.14
2023-01-31T07:13:40.638Z,17.16
2023-01-31T07:14:40.576Z,17.21
2023-01-31T07:15:40.625Z,17.08
2023-01-31T07:16:40.581Z,17.07
2023-01-31T07:17:40.557Z,17.06
2023-01-31T07:18:40.573Z,17.06
2023-01-31T07:19:40.563Z,17.06
2023-01-31T07:20:40.564Z,17.12
2023-01-31T07:21:40.536Z,17.06
2023-01-31T07:22:40.538Z,17.03
2023-01-31T07:23:40.548Z,17.06
2023-01-31T07:24:40.549Z,17.07
2023-01-31T07:25:40.516Z,17.07
2023-01-31T07:26:40.583Z,17.08
2023-01-31T07:27:40.532Z,17.04
2023-01-31T07:28:40.549Z,16.96
2023-01-31T07:29:40.518Z,16.98
2023-01-31T07:30:40.532Z,16.96
2023-01-31T07:31:40.524Z,16.94
2023-01-31T07:32:40.505Z,16.93
2023-01-31T07:33:40.523Z,16.94
2023-01-31T07:34:40.497Z,16.94
2023-01-31T07:35:40.492Z,16.93
2023-01-31T07:36:40.489Z,16.85
2023-01-31T07:37:40.466Z,16.83
2023-01-31T07:38:40.482Z,16.83
2023-01-31T07:39:40.457Z,16.83
2023-01-31T07:40:40.500Z,16.86
2023-01-31T07:41:40.469Z,16.86
2023-01-31T07:42:40.449Z,16.85
2023-01-31T07:43:40.453Z,16.86
2023-01-31T07:44:40.462Z,16.75
2023-01-31T07:45:40.508Z,16.76
2023-01-31T07:46:40.459Z,16.76
2023-01-31T07:47:40.422Z,16.75
2023-01-31T07:48:40.459Z,16.78
2023-01-31T07:49:40.453Z,16.75
2023-01-31T07:50:40.426Z,16.75
2023-01-31T07:51:40.427Z,16.73
2023-01-31T07:52:40.399Z,16.81
2023-01-31T07:53:40.422Z,16.78
2023-01-31T07:54:40.409Z,16.76
2023-01-31T07:55:40.416Z,16.82
2023-01-31T07:56:40.396Z,16.78
2023-01-31T07:57:40.371Z,16.76
2023-01-31T07:58:40.398Z,16.75
2023-01-31T07:59:40.379Z,16.78
2023-01-31T08:00:40.391Z,16.73
2023-01-31T08:01:40.369Z,16.75
2023-01-31T08:02:40.365Z,16.73
2023-01-31T08:03:40.360Z,16.71
2023-01-31T08:04:40.389Z,16.71
2023-01-31T08:05:40.348Z,16.70
2023-01-31T08:06:40.333Z,16.66
2023-01-31T08:07:40.339Z,16.68
2023-01-31T08:08:40.340Z,16.67
2023-01-31T08:09:40.316Z,16.70
2023-01-31T08:10:40.327Z,16.75
2023-01-31T08:11:40.304Z,16.75
2023-01-31T08:12:40.321Z,16.71
2023-01-31T08:13:40.301Z,16.60
2023-01-31T08:14:40.330Z,16.58
2023-01-31T08:15:40.294Z,16.58
2023-01-31T08:16:40.325Z,16.68
2023-01-31T08:17:40.291Z,16.63
2023-01-31T08:18:40.273Z,16.63
2023-01-31T08:19:40.263Z,16.64
2023-01-31T08:20:40.273Z,16.63
2023-01-31T08:21:40.272Z,16.61
2023-01-31T08:22:40.258Z,16.60
2023-01-31T08:23:40.247Z,16.61
2023-01-31T08:24:40.261Z,16.56
2023-01-31T08:25:40.262Z,16.58
2023-01-31T08:26:40.278Z,16.58
2023-01-31T08:27:40.235Z,16.58
2023-01-31T08:28:40.227Z,16.58
2023-01-31T08:29:40.218Z,16.57
2023-01-31T08:30:40.247Z,16.58
2023-01-31T08:31:40.358Z,16.60
2023-01-31T08:32:40.242Z,16.57
2023-01-31T08:33:40.204Z,16.57
2023-01-31T08:34:40.261Z,16.57
2023-01-31T08:35:40.198Z,16.56
2023-01-31T08:36:40.235Z,16.57
2023-01-31T08:37:40.197Z,16.50
2023-01-31T08:38:40.298Z,16.46
2023-01-31T08:39:40.207Z,16.52
2023-01-31T08:40:40.164Z,16.52
2023-01-31T08:41:40.175Z,16.49
2023-01-31T08:42:40.176Z,16.50
2023-01-31T08:43:54.367Z,16.46
2023-01-31T08:44:40.159Z,16.45
2023-01-31T08:45:40.154Z,16.45
2023-01-31T08:46:40.200Z,16.48
2023-01-31T08:47:40.125Z,16.48
2023-01-31T08:48:40.165Z,16.48
2023-01-31T08:49:40.138Z,16.50
2023-01-31T08:50:40.658Z,16.49
2023-01-31T08:51:40.139Z,16.45
2023-01-31T08:52:40.111Z,16.50
2023-01-31T08:53:40.094Z,16.49
2023-01-31T08:54:40.114Z,16.48
2023-01-31T08:55:40.101Z,16.48
2023-01-31T08:56:40.126Z,16.46
2023-01-31T08:57:52.643Z,16.50
2023-01-31T08:58:40.105Z,16.46
2023-01-31T08:59:40.567Z,16.45
2023-01-31T09:00:40.626Z,16.39
2023-01-31T09:01:40.660Z,16.39
2023-01-31T09:02:40.095Z,16.45
2023-01-31T09:03:40.256Z,16.43
2023-01-31T09:04:40.264Z,16.39
2023-01-31T09:05:40.106Z,16.49
2023-01-31T09:06:40.056Z,16.43
2023-01-31T09:07:40.035Z,16.45
2023-01-31T09:08:40.023Z,16.42
2023-01-31T09:09:40.019Z,16.31
2023-01-31T09:10:40.028Z,16.42
2023-01-31T09:11:40.023Z,16.42
2023-01-31T09:12:40.018Z,16.35
2023-01-31T09:13:39.998Z,16.42
2023-01-31T09:14:40.026Z,16.35
2023-01-31T09:15:39.996Z,16.33
2023-01-31T09:16:41.820Z,16.28
2023-01-31T09:17:39.985Z,16.33
2023-01-31T09:18:39.977Z,16.30
2023-01-31T09:19:39.962Z,16.33
2023-01-31T09:20:39.990Z,16.34
2023-01-31T09:21:39.976Z,16.33
2023-01-31T09:22:39.984Z,16.35
2023-01-31T09:23:42.410Z,16.28
2023-01-31T09:24:39.948Z,16.30
2023-01-31T09:25:47.028Z,16.34
2023-01-31T09:26:40.015Z,16.39
2023-01-31T09:27:39.944Z,16.33
2023-01-31T09:28:39.946Z,16.34
2023-01-31T09:29:39.913Z,16.35
2023-01-31T09:30:39.995Z,16.30
2023-01-31T09:31:39.941Z,16.38
2023-01-31T09:32:39.911Z,16.34
2023-01-31T09:33:39.903Z,16.38
2023-01-31T09:34:39.904Z,16.35
2023-01-31T09:35:39.895Z,16.38
2023-01-31T09:36:39.925Z,16.34
2023-01-31T09:37:39.887Z,16.34
2023-01-31T09:38:39.874Z,16.35
2023-01-31T09:39:39.867Z,16.38
2023-01-31T09:40:39.881Z,16.33
2023-01-31T09:41:39.880Z,16.31
2023-01-31T09:42:39.848Z,16.34
2023-01-31T09:43:39.846Z,16.38
2023-01-31T09:44:39.830Z,16.30
2023-01-31T09:45:39.853Z,16.34
2023-01-31T09:46:39.879Z,16.33
2023-01-31T09:47:39.842Z,16.33
2023-01-31T09:48:39.811Z,16.38
2023-01-31T09:49:39.827Z,16.30
2023-01-31T09:50:39.831Z,16.27
2023-01-31T09:51:39.809Z,16.28
2023-01-31T09:52:39.832Z,16.30
2023-01-31T09:53:39.790Z,16.28
2023-01-31T09:54:39.793Z,16.28
2023-01-31T09:55:39.789Z,16.35
2023-01-31T09:56:39.792Z,16.33
2023-01-31T09:57:39.771Z,16.28
2023-01-31T09:58:39.779Z,16.33
2023-01-31T09:59:39.783Z,16.31
2023-01-31T10:00:39.825Z,16.30
2023-01-31T10:01:39.751Z,16.28
2023-01-31T10:02:39.742Z,16.28
2023-01-31T10:03:39.769Z,16.31
2023-01-31T10:04:39.737Z,16.27
2023-01-31T10:05:39.745Z,16.25
2023-01-31T10:06:39.741Z,16.33
2023-01-31T10:07:39.741Z,16.27
2023-01-31T10:08:39.740Z,16.28
2023-01-31T10:09:39.713Z,16.28
2023-01-31T10:10:39.736Z,16.30
2023-01-31T10:11:39.700Z,16.30
2023-01-31T10:12:39.705Z,16.25
2023-01-31T10:13:39.721Z,16.28
2023-01-31T10:14:39.698Z,16.17
2023-01-31T10:15:39.698Z,16.23
2023-01-31T10:16:39.690Z,16.28
2023-01-31T10:17:39.694Z,16.23
2023-01-31T10:18:39.666Z,16.30
2023-01-31T10:19:39.673Z,16.23
2023-01-31T10:20:39.652Z,16.25
2023-01-31T10:21:39.667Z,16.21
2023-01-31T10:22:39.656Z,16.23
2023-01-31T10:23:39.651Z,16.21
2023-01-31T10:24:39.671Z,16.25
2023-01-31T10:25:39.650Z,16.24
2023-01-31T10:26:39.676Z,16.27
2023-01-31T10:27:39.617Z,16.28
2023-01-31T10:28:39.632Z,16.17
2023-01-31T10:29:39.630Z,16.27
2023-01-31T10:30:39.614Z,16.17
2023-01-31T10:31:41.019Z,16.27
2023-01-31T10:32:39.594Z,16.30
2023-01-31T10:33:39.607Z,16.25
2023-01-31T10:34:39.581Z,16.27
2023-01-31T10:35:39.606Z,16.14
2023-01-31T10:36:39.580Z,16.17
2023-01-31T10:37:39.566Z,16.23
2023-01-31T10:38:39.571Z,16.24
2023-01-31T10:39:39.580Z,16.30
2023-01-31T10:40:39.586Z,16.24
2023-01-31T10:41:39.561Z,16.20
2023-01-31T10:42:39.541Z,16.15
2023-01-31T10:43:40.884Z,16.14
2023-01-31T10:44:39.539Z,16.25
2023-01-31T10:45:39.596Z,16.30
2023-01-31T10:46:39.533Z,16.30
2023-01-31T10:47:39.519Z,16.17
2023-01-31T10:48:39.506Z,16.20
2023-01-31T10:49:39.519Z,16.25
2023-01-31T10:50:39.503Z,16.23
2023-01-31T10:51:39.524Z,16.33
2023-01-31T10:52:39.503Z,16.24
2023-01-31T10:53:39.517Z,16.25
2023-01-31T10:54:39.488Z,16.28
2023-01-31T10:55:39.787Z,16.21
2023-01-31T10:56:39.934Z,16.17
2023-01-31T10:57:39.463Z,16.21
2023-01-31T10:58:39.979Z,16.20
2023-01-31T10:59:39.483Z,16.20
2023-01-31T11:00:39.487Z,16.23
2023-01-31T11:01:39.465Z,16.20
2023-01-31T11:02:39.515Z,16.28
2023-01-31T11:03:39.436Z,16.25
2023-01-31T11:04:39.426Z,16.15
2023-01-31T11:05:39.420Z,16.21
2023-01-31T11:06:39.440Z,16.23
2023-01-31T11:07:39.435Z,16.21
2023-01-31T11:08:39.443Z,16.24
2023-01-31T11:09:39.402Z,16.28
2023-01-31T11:10:39.403Z,16.14
2023-01-31T11:11:39.405Z,16.20
2023-01-31T11:12:39.420Z,16.12
2023-01-31T11:13:39.388Z,16.25
2023-01-31T11:14:39.389Z,16.20
2023-01-31T11:15:39.380Z,16.27
2023-01-31T11:16:39.451Z,16.23
2023-01-31T11:17:39.365Z,16.25
2023-01-31T11:18:39.372Z,16.23
2023-01-31T11:19:39.351Z,16.23
2023-01-31T11:20:39.349Z,16.21
2023-01-31T11:21:39.358Z,16.17
2023-01-31T11:22:39.343Z,16.21
2023-01-31T11:23:39.346Z,16.21
2023-01-31T11:24:39.328Z,16.27
2023-01-31T11:25:39.326Z,16.27
2023-01-31T11:26:39.448Z,16.24
2023-01-31T11:27:39.327Z,16.17
2023-01-31T11:28:39.325Z,16.23
2023-01-31T11:29:39.300Z,16.17
2023-01-31T11:30:39.339Z,16.17
2023-01-31T11:31:39.368Z,16.24
2023-01-31T11:32:39.292Z,16.20
2023-01-31T11:33:39.299Z,16.21
2023-01-31T11:34:39.288Z,16.21
2023-01-31T11:35:39.279Z,16.20
2023-01-31T11:36:39.262Z,16.20
2023-01-31T11:37:39.271Z,16.15
2023-01-31T11:38:39.252Z,16.21
2023-01-31T11:39:39.275Z,16.15
2023-01-31T11:40:39.251Z,16.20
2023-01-31T11:41:39.249Z,16.21
2023-01-31T11:42:39.234Z,16.17
2023-01-31T11:43:39.245Z,16.27
2023-01-31T11:44:39.244Z,16.20
2023-01-31T11:45:39.248Z,16.17
2023-01-31T11:46:39.226Z,16.21
2023-01-31T11:47:39.235Z,16.21
2023-01-31T11:48:39.203Z,16.21
2023-01-31T11:49:39.209Z,16.21
2023-01-31T11:50:39.192Z,16.21
2023-01-31T11:51:39.208Z,16.21
2023-01-31T11:52:39.187Z,16.15
2023-01-31T11:53:39.195Z,16.17
2023-01-31T11:54:39.176Z,16.24
2023-01-31T11:55:39.186Z,16.21
2023-01-31T11:56:39.159Z,16.27
2023-01-31T11:57:39.152Z,16.15
2023-01-31T11:58:39.166Z,16.17
2023-01-31T11:59:39.156Z,16.21
2023-01-31T12:00:39.182Z,16.15
2023-01-31T12:01:39.135Z,16.21
2023-01-31T12:02:39.196Z,16.24
2023-01-31T12:03:51.741Z,16.20
2023-01-31T12:04:39.112Z,16.14
2023-01-31T12:05:39.139Z,16.25
2023-01-31T12:06:39.125Z,16.17
2023-01-31T12:07:39.130Z,16.21
2023-01-31T12:08:39.108Z,16.27
2023-01-31T12:09:39.116Z,16.21
2023-01-31T12:10:39.110Z,16.21
2023-01-31T12:11:39.111Z,16.24
2023-01-31T12:12:39.098Z,16.24
2023-01-31T12:13:39.082Z,16.21
2023-01-31T12:14:39.069Z,16.20
2023-01-31T12:15:39.065Z,16.15
2023-01-31T12:16:39.177Z,16.21
2023-01-31T12:17:39.083Z,16.21
2023-01-31T12:18:39.075Z,16.21
2023-01-31T12:19:39.047Z,16.15
2023-01-31T12:20:39.034Z,16.14
2023-01-31T12:21:39.048Z,16.24
2023-01-31T12:22:39.020Z,16.21
2023-01-31T12:23:39.044Z,16.15
2023-01-31T12:24:39.027Z,16.15
2023-01-31T12:25:39.022Z,16.15
2023-01-31T12:26:39.093Z,16.27
2023-01-31T12:27:38.998Z,16.21
2023-01-31T12:28:39.030Z,16.20
2023-01-31T12:29:38.991Z,16.20
2023-01-31T12:30:39.033Z,16.21
2023-01-31T12:31:39.070Z,16.21
2023-01-31T12:32:38.992Z,16.24
2023-01-31T12:33:38.985Z,16.27
2023-01-31T12:34:50.485Z,16.24
2023-01-31T12:35:38.957Z,16.14
2023-01-31T12:36:38.952Z,16.21
2023-01-31T12:37:38.943Z,16.21
2023-01-31T12:38:38.944Z,16.21
2023-01-31T12:39:38.963Z,16.24
2023-01-31T12:40:39.026Z,16.24
2023-01-31T12:41:38.948Z,16.24
2023-01-31T12:42:38.911Z,16.27
2023-01-31T12:43:38.912Z,16.24
2023-01-31T12:44:38.902Z,16.15
2023-01-31T12:45:38.939Z,16.27
2023-01-31T12:46:38.956Z,16.15
2023-01-31T12:47:38.907Z,16.23
2023-01-31T12:48:38.927Z,16.21
2023-01-31T12:49:38.910Z,16.23
2023-01-31T12:50:38.880Z,16.15
2023-01-31T12:51:38.888Z,16.17
2023-01-31T12:52:38.862Z,16.14